createdAt,value
2019-01-30T00:01:36.455Z,98945.25
2019-01-30T00:04:06.964Z,98939.27
2019-01-30T00:06:36.484Z,98939.14
2019-01-30T00:09:08.524Z,98936.84
2019-01-30T00:11:38.088Z,98933.40
2019-01-30T00:14:07.714Z,98931.44
2019-01-30T00:16:37.723Z,98929.92
2019-01-30T00:19:07.254Z,98917.52
2019-01-30T00:21:36.782Z,98916.91
2019-01-30T00:24:06.547Z,98911.42
2019-01-30T00:26:36.091Z,98907.33
2019-01-30T00:31:36.286Z,98895.91
2019-01-30T00:34:05.802Z,98892.05
2019-01-30T00:36:35.373Z,98891.95
2019-01-30T00:39:07.368Z,98890.77
2019-01-30T00:41:36.908Z,98886.03
2019-01-30T00:44:06.448Z,98877.55
2019-01-30T00:46:36.022Z,98870.28
2019-01-30T00:49:05.621Z,98870.83
2019-01-30T00:51:35.205Z,98861.27
2019-01-30T00:54:04.722Z,98866.37
2019-01-30T00:56:34.250Z,98865.89
2019-01-30T00:59:03.792Z,98864.70
2019-01-30T01:01:33.350Z,98856.63
2019-01-30T01:04:02.869Z,98858.77
2019-01-30T01:06:32.409Z,98855.45
2019-01-30T01:09:01.941Z,98852.68
2019-01-30T01:11:31.489Z,98854.84
2019-01-30T01:14:01.091Z,98850.14
2019-01-30T01:16:30.626Z,98842.95
2019-01-30T01:19:00.180Z,98838.76
2019-01-30T01:21:29.701Z,98839.88
2019-01-30T01:23:59.246Z,98840.68
2019-01-30T01:26:28.799Z,98841.73
2019-01-30T01:28:58.415Z,98832.70
2019-01-30T01:31:27.943Z,98833.31
2019-01-30T01:33:57.486Z,98829.49
2019-01-30T01:36:27.279Z,98831.52
2019-01-30T01:38:56.811Z,98828.52
2019-01-30T01:41:26.342Z,98829.13
2019-01-30T01:43:55.888Z,98814.80
2019-01-30T01:46:25.438Z,98823.88
2019-01-30T01:48:54.999Z,98815.20
2019-01-30T01:51:24.509Z,98809.91
2019-01-30T01:53:54.063Z,98811.05
2019-01-30T01:56:23.606Z,98808.04
2019-01-30T01:58:53.428Z,98808.38
2019-01-30T02:01:23.230Z,98806.59
2019-01-30T02:03:52.770Z,98802.09
2019-01-30T02:06:22.306Z,98798.31
2019-01-30T02:08:51.911Z,98794.94
2019-01-30T02:11:21.461Z,98781.43
2019-01-30T02:13:51.022Z,98781.83
2019-01-30T02:16:20.551Z,98782.44
2019-01-30T02:18:50.099Z,98766.33
2019-01-30T02:21:19.761Z,98765.99
2019-01-30T02:23:49.306Z,98757.41
2019-01-30T02:26:18.846Z,98756.13
2019-01-30T02:28:48.394Z,98751.00
2019-01-30T02:31:17.955Z,98745.42
2019-01-30T02:33:47.484Z,98742.45
2019-01-30T02:36:17.014Z,98737.73
2019-01-30T02:38:47.550Z,98728.44
2019-01-30T02:41:17.116Z,98732.52
2019-01-30T02:43:46.892Z,98727.33
2019-01-30T02:46:16.493Z,98727.77
2019-01-30T02:48:45.966Z,98724.86
2019-01-30T02:51:15.509Z,98722.64
2019-01-30T02:53:45.055Z,98715.78
2019-01-30T02:56:14.630Z,98716.73
2019-01-30T02:58:44.181Z,98709.64
2019-01-30T03:01:13.951Z,98705.38
2019-01-30T03:03:43.512Z,98702.31
2019-01-30T03:06:13.038Z,98706.13
2019-01-30T03:08:42.618Z,98701.77
2019-01-30T03:11:12.141Z,98692.55
2019-01-30T03:13:41.670Z,98695.02
2019-01-30T03:16:11.231Z,98689.22
2019-01-30T03:18:40.795Z,98692.28
2019-01-30T03:21:10.345Z,98688.34
2019-01-30T03:23:39.846Z,98688.77
2019-01-30T03:26:09.388Z,98692.39
2019-01-30T03:28:38.933Z,98698.94
2019-01-30T03:31:17.619Z,98689.01
2019-01-30T03:33:39.739Z,98685.30
2019-01-30T03:36:09.292Z,98690.50
2019-01-30T03:38:38.848Z,98690.30
2019-01-30T03:41:08.402Z,98688.54
2019-01-30T03:43:39.143Z,98684.73
2019-01-30T03:46:10.997Z,98673.52
2019-01-30T03:48:40.537Z,98676.92
2019-01-30T03:51:10.101Z,98669.67
2019-01-30T03:53:39.646Z,98670.48
2019-01-30T03:56:09.174Z,98671.69
2019-01-30T03:58:38.732Z,98666.66
2019-01-30T04:01:08.291Z,98663.66
2019-01-30T04:03:38.514Z,98671.86
2019-01-30T04:06:08.060Z,98665.72
2019-01-30T04:08:37.621Z,98666.30
2019-01-30T04:11:07.182Z,98665.92
2019-01-30T04:13:36.720Z,98665.89
2019-01-30T04:16:06.331Z,98666.23
2019-01-30T04:18:35.921Z,98662.88
2019-01-30T04:21:05.718Z,98658.70
2019-01-30T04:23:37.049Z,98665.25
2019-01-30T04:26:06.565Z,98661.64
2019-01-30T04:28:36.087Z,98657.08
2019-01-30T04:31:05.739Z,98653.94
2019-01-30T04:33:35.277Z,98653.50
2019-01-30T04:36:05.043Z,98650.37
2019-01-30T04:38:34.591Z,98648.64
2019-01-30T04:41:04.190Z,98645.23
2019-01-30T04:43:33.698Z,98650.57
2019-01-30T04:46:03.231Z,98640.21
2019-01-30T04:48:32.765Z,98640.11
2019-01-30T04:51:02.307Z,98640.52
2019-01-30T04:53:31.863Z,98639.27
2019-01-30T04:56:01.661Z,98634.81
2019-01-30T04:58:31.214Z,98624.98
2019-01-30T05:01:00.762Z,98623.64
2019-01-30T05:03:30.322Z,98625.59
2019-01-30T05:05:59.853Z,98627.28
2019-01-30T05:08:29.406Z,98623.61
2019-01-30T05:10:58.957Z,98619.02
2019-01-30T05:13:28.491Z,98618.81
2019-01-30T05:15:58.054Z,98617.23
2019-01-30T05:18:27.622Z,98609.94
2019-01-30T05:20:57.165Z,98611.66
2019-01-30T05:23:26.702Z,98612.27
2019-01-30T05:25:56.245Z,98599.63
2019-01-30T05:28:25.782Z,98606.27
2019-01-30T05:30:55.331Z,98604.98
2019-01-30T05:33:24.889Z,98601.23
2019-01-30T05:35:54.767Z,98599.28
2019-01-30T05:38:24.310Z,98598.84
2019-01-30T05:40:53.902Z,98595.33
2019-01-30T05:43:23.418Z,98600.08
2019-01-30T05:45:53.003Z,98590.81
2019-01-30T05:48:22.489Z,98591.11
2019-01-30T05:50:52.052Z,98593.61
2019-01-30T05:53:21.581Z,98597.12
2019-01-30T05:55:51.133Z,98588.37
2019-01-30T05:58:20.683Z,98595.52
2019-01-30T06:00:50.232Z,98594.45
2019-01-30T06:03:19.777Z,98594.81
2019-01-30T06:05:49.344Z,98599.14
2019-01-30T06:08:18.904Z,98598.02
2019-01-30T06:10:48.449Z,98591.27
2019-01-30T06:13:19.637Z,98592.55
2019-01-30T06:15:49.454Z,98595.12
2019-01-30T06:18:18.983Z,98589.44
2019-01-30T06:20:48.517Z,98588.30
2019-01-30T06:23:18.079Z,98584.96
2019-01-30T06:25:47.755Z,98581.52
2019-01-30T06:28:17.277Z,98576.86
2019-01-30T06:30:47.123Z,98584.86
2019-01-30T06:33:18.410Z,98583.73
2019-01-30T06:35:47.906Z,98580.69
2019-01-30T06:38:17.450Z,98576.36
2019-01-30T06:40:46.992Z,98584.43
2019-01-30T06:43:16.562Z,98578.49
2019-01-30T06:45:46.123Z,98574.61
2019-01-30T06:48:15.729Z,98572.81
2019-01-30T06:50:45.266Z,98571.70
2019-01-30T06:53:14.809Z,98573.88
2019-01-30T06:55:44.353Z,98576.88
2019-01-30T06:58:13.882Z,98580.28
2019-01-30T07:00:43.444Z,98571.70
2019-01-30T07:03:12.983Z,98564.67
2019-01-30T07:05:42.533Z,98566.80
2019-01-30T07:08:12.084Z,98562.04
2019-01-30T07:10:41.627Z,98555.70
2019-01-30T07:13:11.151Z,98556.14
2019-01-30T07:15:41.875Z,98563.28
2019-01-30T07:18:11.415Z,98562.77
2019-01-30T07:20:41.024Z,98559.44
2019-01-30T07:23:10.566Z,98560.83
2019-01-30T07:25:41.560Z,98557.02
2019-01-30T07:28:11.144Z,98553.39
2019-01-30T07:30:40.770Z,98549.50
2019-01-30T07:33:10.334Z,98558.08
2019-01-30T07:35:41.439Z,98558.52
2019-01-30T07:38:11.002Z,98555.19
2019-01-30T07:40:40.557Z,98555.84
2019-01-30T07:43:10.091Z,98555.92
2019-01-30T07:45:39.626Z,98559.59
2019-01-30T07:48:09.182Z,98552.29
2019-01-30T07:50:38.734Z,98550.60
2019-01-30T07:53:08.353Z,98545.87
2019-01-30T07:55:38.929Z,98547.30
2019-01-30T07:58:08.446Z,98548.38
2019-01-30T08:00:38.022Z,98554.20
2019-01-30T08:03:07.629Z,98548.04
2019-01-30T08:05:37.169Z,98553.61
2019-01-30T08:08:06.736Z,98555.81
2019-01-30T08:10:36.265Z,98551.78
2019-01-30T08:13:06.626Z,98552.55
2019-01-30T08:15:36.161Z,98551.38
2019-01-30T08:18:05.835Z,98546.50
2019-01-30T08:20:35.390Z,98547.08
2019-01-30T08:23:05.277Z,98546.53
2019-01-30T08:25:35.302Z,98545.69
2019-01-30T08:28:05.868Z,98547.81
2019-01-30T08:30:35.623Z,98552.11
2019-01-30T08:33:05.919Z,98547.30
2019-01-30T08:35:36.081Z,98538.95
2019-01-30T08:38:06.449Z,98543.05
2019-01-30T08:40:35.985Z,98547.81
2019-01-30T08:43:06.188Z,98546.79
2019-01-30T08:45:35.734Z,98543.41
2019-01-30T08:48:05.347Z,98542.46
2019-01-30T08:50:34.898Z,98544.07
2019-01-30T08:53:04.755Z,98547.08
2019-01-30T08:55:34.296Z,98540.99
2019-01-30T08:58:03.959Z,98544.00
2019-01-30T09:00:33.481Z,98544.11
2019-01-30T09:03:03.028Z,98543.96
2019-01-30T09:05:32.723Z,98547.48
2019-01-30T09:08:02.235Z,98550.81
2019-01-30T09:10:31.826Z,98547.22
2019-01-30T09:13:01.373Z,98540.11
2019-01-30T09:15:31.285Z,98544.33
2019-01-30T09:18:00.842Z,98537.02
2019-01-30T09:20:30.406Z,98540.80
2019-01-30T09:22:59.956Z,98535.42
2019-01-30T09:25:31.126Z,98536.41
2019-01-30T09:28:02.322Z,98529.41
2019-01-30T09:30:38.148Z,98529.41
2019-01-30T09:33:09.561Z,98527.95
2019-01-30T09:35:40.909Z,98524.10
2019-01-30T09:38:10.515Z,98529.93
2019-01-30T09:40:40.160Z,98528.42
2019-01-30T09:43:09.698Z,98535.61
2019-01-30T09:45:39.344Z,98526.81
2019-01-30T09:48:09.024Z,98530.92
2019-01-30T09:50:38.584Z,98531.33
2019-01-30T09:53:09.020Z,98532.86
2019-01-30T09:55:40.032Z,98530.99
2019-01-30T09:58:09.603Z,98535.69
2019-01-30T10:00:39.958Z,98540.23
2019-01-30T10:03:09.601Z,98546.87
2019-01-30T10:05:39.146Z,98542.47
2019-01-30T10:08:08.755Z,98551.78
2019-01-30T10:10:41.848Z,98544.73
2019-01-30T10:13:11.830Z,98549.88
2019-01-30T10:15:44.955Z,98551.27
2019-01-30T10:18:15.424Z,98552.95
2019-01-30T10:20:47.655Z,98553.91
2019-01-30T10:23:17.203Z,98553.39
2019-01-30T10:25:46.768Z,98549.66
2019-01-30T10:28:17.216Z,98553.06
2019-01-30T10:30:48.360Z,98557.80
2019-01-30T10:33:18.172Z,98552.77
2019-01-30T10:35:47.959Z,98553.50
2019-01-30T10:38:17.565Z,98546.20
2019-01-30T10:40:47.176Z,98551.16
2019-01-30T10:43:19.450Z,98552.03
2019-01-30T10:45:48.266Z,98556.91
2019-01-30T10:48:17.810Z,98547.84
2019-01-30T10:50:47.350Z,98548.25
2019-01-30T10:53:18.729Z,98548.50
2019-01-30T10:55:48.221Z,98546.97
2019-01-30T10:58:18.035Z,98547.08
2019-01-30T11:00:50.501Z,98543.23
2019-01-30T11:03:20.471Z,98539.63
2019-01-30T11:05:50.253Z,98536.70
2019-01-30T11:08:20.172Z,98533.50
2019-01-30T11:10:50.952Z,98533.91
2019-01-30T11:13:20.693Z,98535.74
2019-01-30T11:15:50.234Z,98533.50
2019-01-30T11:18:20.007Z,98529.54
2019-01-30T11:20:49.730Z,98530.31
2019-01-30T11:23:19.273Z,98531.38
2019-01-30T11:25:50.008Z,98519.73
2019-01-30T11:28:19.531Z,98528.77
2019-01-30T11:30:49.058Z,98522.89
2019-01-30T11:33:18.614Z,98522.26
2019-01-30T11:35:48.175Z,98519.69
2019-01-30T11:38:17.675Z,98513.64
2019-01-30T11:40:47.218Z,98517.68
2019-01-30T11:43:16.746Z,98516.36
2019-01-30T11:45:47.146Z,98508.83
2019-01-30T11:48:16.709Z,98508.46
2019-01-30T11:50:46.242Z,98510.38
2019-01-30T11:53:16.105Z,98503.52
2019-01-30T11:55:45.717Z,98509.94
2019-01-30T11:58:15.266Z,98505.69
2019-01-30T12:00:52.240Z,98506.53
2019-01-30T12:03:21.769Z,98508.02
2019-01-30T12:05:51.410Z,98506.34
2019-01-30T12:08:21.087Z,98508.99
2019-01-30T12:10:50.705Z,98502.02
2019-01-30T12:13:20.312Z,98504.50
2019-01-30T12:15:49.869Z,98502.82
2019-01-30T12:18:19.389Z,98500.66
2019-01-30T12:20:48.945Z,98500.93
2019-01-30T12:23:18.537Z,98503.02
2019-01-30T12:25:48.134Z,98505.98
2019-01-30T12:28:17.684Z,98499.84
2019-01-30T12:30:47.221Z,98503.70
2019-01-30T12:33:16.822Z,98506.52
2019-01-30T12:35:46.372Z,98498.89
2019-01-30T12:38:15.915Z,98507.28
2019-01-30T12:40:45.471Z,98509.41
2019-01-30T12:43:14.986Z,98511.13
2019-01-30T12:45:44.521Z,98509.28
2019-01-30T12:48:14.080Z,98509.28
2019-01-30T12:50:43.710Z,98507.75
2019-01-30T12:53:13.260Z,98509.80
2019-01-30T12:55:43.880Z,98511.09
2019-01-30T12:58:13.437Z,98504.39
2019-01-30T13:00:44.568Z,98502.66
2019-01-30T13:03:14.095Z,98504.71
2019-01-30T13:05:43.653Z,98504.27
2019-01-30T13:08:13.265Z,98506.91
2019-01-30T13:10:42.872Z,98502.94
2019-01-30T13:13:12.583Z,98506.64
2019-01-30T13:15:43.604Z,98500.30
2019-01-30T13:18:18.116Z,98493.70
2019-01-30T13:20:44.396Z,98491.17
2019-01-30T13:23:13.948Z,98493.58
2019-01-30T13:25:43.518Z,98498.00
2019-01-30T13:28:13.047Z,98501.77
2019-01-30T13:30:43.817Z,98503.70
2019-01-30T13:33:14.018Z,98507.51
2019-01-30T13:35:45.351Z,98506.27
2019-01-30T13:38:14.840Z,98511.11
2019-01-30T13:40:44.461Z,98508.86
2019-01-30T13:43:14.070Z,98511.56
2019-01-30T13:45:43.621Z,98508.34
2019-01-30T13:48:13.439Z,98510.52
2019-01-30T13:50:43.034Z,98508.84
2019-01-30T13:53:14.373Z,98516.95
2019-01-30T13:55:45.276Z,98521.69
2019-01-30T13:58:14.820Z,98527.10
2019-01-30T14:00:44.371Z,98526.34
2019-01-30T14:03:13.920Z,98529.03
2019-01-30T14:05:43.554Z,98534.54
2019-01-30T14:08:13.313Z,98531.84
2019-01-30T14:10:44.112Z,98531.97
2019-01-30T14:13:18.203Z,98538.08
2019-01-30T14:15:48.277Z,98539.75
2019-01-30T14:18:17.921Z,98534.54
2019-01-30T14:20:47.469Z,98535.98
2019-01-30T14:23:17.095Z,98542.52
2019-01-30T14:25:46.654Z,98541.68
2019-01-30T14:28:16.298Z,98539.03
2019-01-30T14:30:45.924Z,98537.63
2019-01-30T14:33:15.521Z,98542.81
2019-01-30T14:35:46.447Z,98542.20
2019-01-30T14:38:16.076Z,98540.31
2019-01-30T14:40:45.737Z,98549.95
2019-01-30T14:43:15.296Z,98551.34
2019-01-30T14:45:44.797Z,98546.98
2019-01-30T14:48:14.331Z,98551.55
2019-01-30T14:50:43.992Z,98560.59
2019-01-30T14:53:13.519Z,98554.17
2019-01-30T14:55:44.198Z,98559.31
2019-01-30T14:58:14.007Z,98557.21
2019-01-30T15:00:43.595Z,98557.13
2019-01-30T15:03:13.137Z,98561.27
2019-01-30T15:05:42.734Z,98558.06
2019-01-30T15:08:12.339Z,98560.75
2019-01-30T15:10:41.906Z,98566.94
2019-01-30T15:13:11.552Z,98569.59
2019-01-30T15:15:44.015Z,98566.62
2019-01-30T15:18:12.337Z,98570.52
2019-01-30T15:20:46.627Z,98570.67
2019-01-30T15:23:16.145Z,98572.40
2019-01-30T15:25:45.683Z,98575.41
2019-01-30T15:28:15.229Z,98569.88
2019-01-30T15:30:45.927Z,98575.17
2019-01-30T15:33:15.473Z,98573.81
2019-01-30T15:35:46.090Z,98575.41
2019-01-30T15:38:15.703Z,98582.56
2019-01-30T15:40:45.301Z,98585.13
2019-01-30T15:43:14.911Z,98585.97
2019-01-30T15:45:44.725Z,98583.97
2019-01-30T15:48:14.449Z,98588.91
2019-01-30T15:50:44.144Z,98592.55
2019-01-30T15:53:15.505Z,98595.20
2019-01-30T15:55:45.370Z,98594.24
2019-01-30T15:58:14.915Z,98594.69
2019-01-30T16:00:54.641Z,98593.80
2019-01-30T16:03:24.326Z,98597.06
2019-01-30T16:05:53.883Z,98600.27
2019-01-30T16:08:23.424Z,98604.56
2019-01-30T16:10:53.031Z,98605.04
2019-01-30T16:13:22.623Z,98608.38
2019-01-30T16:15:56.776Z,98607.78
2019-01-30T16:18:26.367Z,98610.31
2019-01-30T16:20:55.905Z,98616.73
2019-01-30T16:23:25.807Z,98619.70
2019-01-30T16:25:55.325Z,98620.80
2019-01-30T16:28:24.905Z,98624.53
2019-01-30T16:30:54.419Z,98620.48
2019-01-30T16:33:23.932Z,98630.76
2019-01-30T16:35:56.099Z,98631.04
2019-01-30T16:38:24.717Z,98630.64
2019-01-30T16:40:54.271Z,98636.87
2019-01-30T16:43:23.823Z,98638.11
2019-01-30T16:45:53.347Z,98635.02
2019-01-30T16:48:22.899Z,98644.86
2019-01-30T16:50:52.519Z,98644.34
2019-01-30T16:53:22.075Z,98647.23
2019-01-30T16:55:51.701Z,98657.00
2019-01-30T16:58:21.532Z,98660.81
2019-01-30T17:00:51.055Z,98658.25
2019-01-30T17:03:20.601Z,98665.96
2019-01-30T17:05:50.202Z,98670.34
2019-01-30T17:08:19.754Z,98672.39
2019-01-30T17:10:49.314Z,98672.71
2019-01-30T17:13:21.793Z,98671.34
2019-01-30T17:15:52.786Z,98675.69
2019-01-30T17:18:24.365Z,98675.20
2019-01-30T17:20:53.888Z,98673.59
2019-01-30T17:23:23.435Z,98683.56
2019-01-30T17:25:52.993Z,98688.78
2019-01-30T17:28:22.894Z,98690.06
2019-01-30T17:30:58.087Z,98695.72
2019-01-30T17:33:27.599Z,98697.89
2019-01-30T17:35:57.119Z,98701.87
2019-01-30T17:38:26.673Z,98700.89
2019-01-30T17:40:56.262Z,98699.48
2019-01-30T17:43:25.820Z,98699.48
2019-01-30T17:45:55.361Z,98708.48
2019-01-30T17:48:24.929Z,98708.16
2019-01-30T17:50:54.471Z,98712.39
2019-01-30T17:53:24.248Z,98713.23
2019-01-30T17:55:53.790Z,98714.91
2019-01-30T17:58:23.327Z,98719.66
2019-01-30T18:00:57.289Z,98714.91
2019-01-30T18:03:26.824Z,98725.08
2019-01-30T18:05:56.364Z,98722.84
2019-01-30T18:08:25.906Z,98725.41
2019-01-30T18:10:55.494Z,98727.14
2019-01-30T18:13:25.061Z,98733.16
2019-01-30T18:15:56.316Z,98730.59
2019-01-30T18:18:25.829Z,98734.69
2019-01-30T18:20:55.346Z,98740.74
2019-01-30T18:23:24.902Z,98738.90
2019-01-30T18:25:54.470Z,98743.56
2019-01-30T18:28:24.053Z,98746.87
2019-01-30T18:30:53.587Z,98752.00
2019-01-30T18:33:23.134Z,98749.39
2019-01-30T18:35:52.690Z,98750.61
2019-01-30T18:38:22.310Z,98747.38
2019-01-30T18:40:51.867Z,98749.95
2019-01-30T18:43:21.408Z,98755.46
2019-01-30T18:45:50.945Z,98760.28
2019-01-30T18:48:20.470Z,98761.56
2019-01-30T18:50:50.018Z,98762.36
2019-01-30T18:53:21.958Z,98769.89
2019-01-30T18:55:51.527Z,98768.09
2019-01-30T18:58:21.052Z,98770.33
2019-01-30T19:00:50.581Z,98774.96
2019-01-30T19:03:20.114Z,98771.58
2019-01-30T19:05:49.813Z,98773.42
2019-01-30T19:08:19.416Z,98775.22
2019-01-30T19:10:49.063Z,98776.50
2019-01-30T19:13:21.079Z,98777.68
2019-01-30T19:15:49.901Z,98778.48
2019-01-30T19:18:19.466Z,98785.84
2019-01-30T19:20:49.057Z,98785.50
2019-01-30T19:23:20.590Z,98782.94
2019-01-30T19:25:49.873Z,98776.83
2019-01-30T19:28:19.398Z,98781.69
2019-01-30T19:30:50.096Z,98787.67
2019-01-30T19:33:22.405Z,98788.19
2019-01-30T19:35:52.446Z,98788.96
2019-01-30T19:38:25.230Z,98796.13
2019-01-30T19:40:55.639Z,98795.31
2019-01-30T19:43:25.555Z,98797.55
2019-01-30T19:45:55.131Z,98802.59
2019-01-30T19:48:24.659Z,98797.84
2019-01-30T19:50:54.205Z,98802.22
2019-01-30T19:53:23.750Z,98797.55
2019-01-30T19:55:53.271Z,98796.27
2019-01-30T19:58:22.829Z,98797.95
2019-01-30T20:00:52.503Z,98806.81
2019-01-30T20:03:22.226Z,98803.33
2019-01-30T20:05:51.768Z,98804.17
2019-01-30T20:08:21.286Z,98807.14
2019-01-30T20:10:50.947Z,98807.51
2019-01-30T20:13:20.441Z,98801.81
2019-01-30T20:15:49.987Z,98806.88
2019-01-30T20:18:19.511Z,98809.02
2019-01-30T20:20:49.088Z,98810.26
2019-01-30T20:23:18.705Z,98807.28
2019-01-30T20:25:48.337Z,98811.59
2019-01-30T20:28:17.937Z,98815.95
2019-01-30T20:30:47.828Z,98813.27
2019-01-30T20:33:17.360Z,98823.23
2019-01-30T20:35:48.934Z,98821.03
2019-01-30T20:38:18.581Z,98821.43
2019-01-30T20:40:48.227Z,98825.73
2019-01-30T20:43:19.800Z,98823.96
2019-01-30T20:45:49.070Z,98823.16
2019-01-30T20:48:18.602Z,98829.98
2019-01-30T20:50:48.237Z,98831.67
2019-01-30T20:53:19.779Z,98830.76
2019-01-30T20:55:49.056Z,98832.05
2019-01-30T20:58:18.591Z,98829.88
2019-01-30T21:00:48.131Z,98832.81
2019-01-30T21:03:19.182Z,98833.98
2019-01-30T21:09:17.782Z,98836.97
2019-01-30T21:11:48.461Z,98836.56
2019-01-30T21:14:18.021Z,98838.58
2019-01-30T21:16:47.619Z,98838.17
2019-01-30T21:19:17.133Z,98833.95
2019-01-30T21:21:46.661Z,98835.23
2019-01-30T21:24:16.454Z,98842.11
2019-01-30T21:26:45.978Z,98840.82
2019-01-30T21:29:15.506Z,98844.02
2019-01-30T21:31:45.836Z,98851.66
2019-01-30T21:34:15.386Z,98841.05
2019-01-30T21:36:44.991Z,98843.09
2019-01-30T21:39:14.527Z,98852.06
2019-01-30T21:41:44.048Z,98854.23
2019-01-30T21:44:13.659Z,98856.80
2019-01-30T21:46:43.200Z,98856.10
2019-01-30T21:49:12.742Z,98855.70
2019-01-30T21:51:42.297Z,98855.81
2019-01-30T21:54:11.824Z,98849.48
2019-01-30T21:56:41.362Z,98852.35
2019-01-30T21:59:10.902Z,98854.01
2019-01-30T22:01:40.448Z,98854.30
2019-01-30T22:04:10.048Z,98859.04
2019-01-30T22:06:39.588Z,98856.44
2019-01-30T22:09:09.290Z,98863.67
2019-01-30T22:11:38.909Z,98865.77
2019-01-30T22:14:08.464Z,98862.12
2019-01-30T22:16:38.694Z,98868.89
2019-01-30T22:19:09.576Z,98869.66
2019-01-30T22:21:39.298Z,98869.66
2019-01-30T22:24:08.900Z,98868.48
2019-01-30T22:26:38.479Z,98867.67
2019-01-30T22:29:08.088Z,98873.70
2019-01-30T22:31:38.626Z,98867.38
2019-01-30T22:34:08.172Z,98866.83
2019-01-30T22:36:37.726Z,98865.58
2019-01-30T22:39:08.397Z,98867.48
2019-01-30T22:41:37.940Z,98865.42
2019-01-30T22:44:07.471Z,98871.78
2019-01-30T22:46:37.001Z,98867.05
2019-01-30T22:49:06.552Z,98868.22
2019-01-30T22:51:36.168Z,98868.73
2019-01-30T22:54:05.777Z,98873.36
2019-01-30T22:56:35.312Z,98871.13
2019-01-30T22:59:04.919Z,98874.58
2019-01-30T23:01:39.246Z,98875.83
2019-01-30T23:04:28.360Z,98874.44
2019-01-30T23:07:08.093Z,98874.80
2019-01-30T23:09:51.217Z,98868.38
2019-01-30T23:12:37.091Z,98871.72
2019-01-30T23:15:35.006Z,98877.67
2019-01-30T23:18:31.369Z,98879.28
2019-01-30T23:21:08.171Z,98872.02
2019-01-30T23:23:56.975Z,98868.08
2019-01-30T23:26:34.049Z,98871.05
2019-01-30T23:29:26.233Z,98869.44
2019-01-30T23:32:24.087Z,98872.45
2019-01-30T23:35:00.760Z,98874.14
2019-01-30T23:37:58.196Z,98876.09
2019-01-30T23:40:32.400Z,98881.34
2019-01-30T23:43:22.854Z,98871.39
2019-01-30T23:45:59.746Z,98870.61
2019-01-30T23:48:36.623Z,98872.30
2019-01-30T23:51:22.259Z,98875.20
2019-01-30T23:54:10.944Z,98875.13
2019-01-30T23:56:50.323Z,98874.63
2019-01-30T23:59:43.782Z,98869.66
